Terminal Aerodrome Forecast
Issued by NWS

Home | Current Version | Previous Version | Graphics & Text | Print | Product List | Glossary On
Versions: 1 2 3 4 5 6 7 8 9 10 11 12 13 14 15 16 17 18 19 20 21
951
FTUS43 KTOP 200520
TAFMHK
TAF
KMHK 200520Z 2006/2106 15006KT P6SM SCT020 BKN040
     FM200700 18010KT 5SM -TSRA BR OVC021CB
      TEMPO 2008/2010 3SM TSRA BR OVC011CB
     FM201100 18008KT 6SM BR VCSH OVC011
     FM201500 20010KT P6SM BKN035
     FM210000 31005KT P6SM FEW250=

USA.gov is the U.S. government's official web portal to all federal, state and local government web resources and services.